Lexington, KY (40575)

11:08 AM EST on December 06, 2016 (GMT -0500)
Sayre School | | Change Station

Elev 971 ft 38.05 °N, 84.49 °W | Updated 8 minutes ago

Light Rain
Light Rain Mist
44.8 °F
Feels Like 45 °F
N
3.0
Wind Variable Wind from North
Gusts 6.0 mph

Today
High -- | Low -- °F
--% Chance of Precip.
Yesterday
High -- | Low -- °F
Precip. -- in
Pressure 29.67 in
Visibility 1.8 miles
Clouds Overcast 300 ft
Windchill 45 °F
Dew Point 44 °F
Humidity 96%
Rainfall 0.53 in
Snow Depth Not available.
7:40 AM 5:18 PM
Waxing Crescent, 43% visible
METAR KLEX 061554Z 32005KT 1 3/4SM -RA BR OVC003 07/06 A2967 RMK AO2 RAB33 SLP047 P0001 T00720061
Pressure 29.67 in
Visibility 1.8 miles
Clouds Overcast 300 ft
Windchill 45 °F
Dew Point 44 °F
Humidity 96%
Rainfall 0.53 in
Snow Depth Not available.
7:40 AM 5:18 PM
Waxing Crescent, 43% visible
METAR KLEX 061554Z 32005KT 1 3/4SM -RA BR OVC003 07/06 A2967 RMK AO2 RAB33 SLP047 P0001 T00720061

10-Day Weather Forecast

Almanac

Astronomy

Dec. 06, 2016 Rise Set
Actual Time
Civil Twilight
Nautical Twilight
Astronomical Twilight
Moon
Length of Visible Light
Length of Day
Tomorrow will be .
, % of the Moon is Illuminated

Today's Extremes

State Highs State Lows

Community

WunderPhotos

Upload Photos

1,955,959 photos uploaded!

WunderBlog® & News

Nearby

Air Quality

  Air Quality AQ Index Pollutant
Not available.

Snow Depth

Station Depth Elevation

Earthquake Activity

City Distance Mag. Time & Date
Minimum magnitude displayed is 2.5.

Coastal Water Temperatures

Place Temperature

Stations

Nearby Weather Stations

Station Location Temp. Windchill Dew Point Humidity Wind Precip. Elev Updated Type
                   

Watches & Warnings

There are currently no watches in effect.